Time;durP1;ratioP1;P1;durP2;ratioP2;P2;SDS_P1;SDS_P2;PMS_P1;PMS_P2;Temp;Humidity;BMP_temperature;BMP_pressure;BME280_temperature;BME280_humidity;BME280_pressure;Samples;Min_cycle;Max_cycle;Signal;HPM_P1;HPM_P2
2023/12/31 00:01:16;;;;;;;0.30;0.30;;;5.70;99.90;;;;;;5032757;28;20234;-92
2023/12/31 00:03:42;;;;;;;0.30;0.30;;;5.70;99.90;;;;;;5033300;28;20171;-93
2023/12/31 00:06:08;;;;;;;0.20;0.20;;;5.70;99.90;;;;;;5034130;28;20198;-93
2023/12/31 00:08:33;;;;;;;0.30;0.30;;;5.70;99.90;;;;;;5032621;28;20191;-93
2023/12/31 00:11:00;;;;;;;0.30;0.30;;;5.70;99.90;;;;;;5034145;28;20230;-93
2023/12/31 00:13:26;;;;;;;0.20;0.20;;;5.70;99.90;;;;;;5033465;28;20172;-92
2023/12/31 00:15:52;;;;;;;0.30;0.30;;;5.70;99.90;;;;;;5032375;28;20438;-93
2023/12/31 00:18:17;;;;;;;0.30;0.30;;;5.60;99.90;;;;;;5031206;28;20894;-94
2023/12/31 00:20:43;;;;;;;0.30;0.30;;;5.70;99.90;;;;;;5032691;28;20667;-94
2023/12/31 00:23:11;;;;;;;0.20;0.20;;;5.60;99.90;;;;;;5028022;28;20180;-93
2023/12/31 00:25:37;;;;;;;0.20;0.20;;;5.60;99.90;;;;;;5020847;28;20746;-93
2023/12/31 00:28:03;;;;;;;0.30;0.30;;;5.60;99.90;;;;;;5032544;28;20419;-92
2023/12/31 00:30:28;;;;;;;0.20;0.20;;;5.60;99.90;;;;;;5032973;28;20493;-93
2023/12/31 00:32:54;;;;;;;0.27;0.27;;;5.60;99.90;;;;;;5031704;28;20214;-93
2023/12/31 00:35:20;;;;;;;0.30;0.30;;;5.50;99.90;;;;;;5032965;28;20188;-92
2023/12/31 00:37:46;;;;;;;0.20;0.20;;;5.50;99.90;;;;;;5033055;28;20254;-92
2023/12/31 00:40:12;;;;;;;0.30;0.30;;;5.50;99.90;;;;;;5033602;28;20176;-93
2023/12/31 00:42:37;;;;;;;0.30;0.30;;;5.40;99.90;;;;;;5032995;28;20476;-93
2023/12/31 00:45:03;;;;;;;0.40;0.40;;;5.40;99.90;;;;;;5032810;28;20186;-93
2023/12/31 00:47:28;;;;;;;0.30;0.30;;;5.40;99.90;;;;;;5032379;28;20261;-93
2023/12/31 00:49:54;;;;;;;0.20;0.20;;;5.40;99.90;;;;;;5032992;28;20194;-93
2023/12/31 00:52:19;;;;;;;0.30;0.30;;;5.40;99.90;;;;;;5032898;28;20851;-92
2023/12/31 00:54:46;;;;;;;0.30;0.30;;;5.40;99.90;;;;;;5031903;28;20262;-92
2023/12/31 00:57:12;;;;;;;0.50;0.50;;;5.40;99.90;;;;;;5030934;28;20185;-93
2023/12/31 00:59:38;;;;;;;0.20;0.20;;;5.40;99.90;;;;;;5032437;28;20422;-91
2023/12/31 01:02:03;;;;;;;0.40;0.40;;;5.30;99.90;;;;;;5031578;28;20636;-92
2023/12/31 01:04:29;;;;;;;0.30;0.30;;;5.30;99.90;;;;;;5032890;28;20187;-92
2023/12/31 01:06:54;;;;;;;0.30;0.30;;;5.30;99.90;;;;;;5027269;28;20775;-93
2023/12/31 01:09:20;;;;;;;0.60;0.60;;;5.30;99.90;;;;;;5031168;28;20195;-93
2023/12/31 01:11:45;;;;;;;0.30;0.30;;;5.30;99.90;;;;;;5031843;28;20246;-93
2023/12/31 01:14:11;;;;;;;0.30;0.30;;;5.30;99.90;;;;;;5032021;28;20213;-93
2023/12/31 01:16:36;;;;;;;0.30;0.30;;;5.30;99.90;;;;;;5032718;28;20183;-92
2023/12/31 01:19:02;;;;;;;0.40;0.40;;;5.30;99.90;;;;;;5032372;28;20191;-93
2023/12/31 01:21:27;;;;;;;0.30;0.30;;;5.30;99.90;;;;;;5022015;28;20194;-93
2023/12/31 01:23:53;;;;;;;0.30;0.30;;;5.30;99.90;;;;;;5032259;28;20187;-93
2023/12/31 01:26:18;;;;;;;1.57;1.57;;;5.30;99.90;;;;;;5032826;28;20184;-92
2023/12/31 01:28:44;;;;;;;0.30;0.30;;;5.20;99.90;;;;;;5032795;28;20272;-92
2023/12/31 01:31:19;;;;;;;0.30;0.30;;;5.20;99.90;;;;;;5028366;28;20238;-93
2023/12/31 01:33:45;;;;;;;0.43;0.37;;;5.20;99.90;;;;;;5033075;28;20171;-92
2023/12/31 01:36:15;;;;;;;0.30;0.30;;;5.10;99.90;;;;;;5032505;28;20422;-93
2023/12/31 01:38:41;;;;;;;0.30;0.30;;;5.20;99.90;;;;;;5031858;28;21016;-92
2023/12/31 01:41:09;;;;;;;0.37;0.37;;;5.10;99.90;;;;;;5032856;28;20438;-93
2023/12/31 01:43:34;;;;;;;0.30;0.30;;;5.10;99.90;;;;;;5032599;28;20176;-93
2023/12/31 01:46:00;;;;;;;0.30;0.30;;;5.10;99.90;;;;;;5030893;28;20433;-92
2023/12/31 01:48:26;;;;;;;0.30;0.30;;;5.10;99.90;;;;;;5031390;28;20450;-92
2023/12/31 01:50:52;;;;;;;0.30;0.30;;;5.10;99.90;;;;;;5031158;28;20211;-93
2023/12/31 01:53:19;;;;;;;0.40;0.40;;;5.10;99.90;;;;;;5032273;28;20437;-93
2023/12/31 01:55:46;;;;;;;0.30;0.30;;;5.10;99.90;;;;;;5030693;28;20202;-93
2023/12/31 01:58:13;;;;;;;0.50;0.50;;;5.00;99.90;;;;;;5036492;28;20425;-92
2023/12/31 02:00:39;;;;;;;0.30;0.30;;;5.00;99.90;;;;;;5035980;28;20442;-93
2023/12/31 02:03:04;;;;;;;0.30;0.30;;;5.00;99.90;;;;;;5036056;28;20779;-92
2023/12/31 02:05:30;;;;;;;0.30;0.30;;;5.00;99.90;;;;;;5035950;28;20589;-92
2023/12/31 02:07:56;;;;;;;0.30;0.30;;;5.00;99.90;;;;;;5034741;28;20192;-93
2023/12/31 02:10:21;;;;;;;0.40;0.40;;;5.10;99.90;;;;;;5025174;28;20257;-92
2023/12/31 02:12:47;;;;;;;0.50;0.50;;;5.10;99.90;;;;;;5021154;28;20183;-93
2023/12/31 02:15:13;;;;;;;0.40;0.40;;;5.00;99.90;;;;;;5035780;28;20566;-92
2023/12/31 02:17:38;;;;;;;0.40;0.40;;;5.10;99.90;;;;;;5035859;28;20472;-93
2023/12/31 02:20:06;;;;;;;0.43;0.43;;;5.10;99.90;;;;;;5033484;28;20647;-92
2023/12/31 02:22:32;;;;;;;0.60;0.60;;;5.10;99.90;;;;;;5033968;28;20180;-93
2023/12/31 02:25:04;;;;;;;0.50;0.50;;;5.10;99.90;;;;;;5035445;28;20461;-92
2023/12/31 02:27:30;;;;;;;0.47;0.47;;;5.10;99.90;;;;;;5034461;28;20513;-94
2023/12/31 02:30:02;;;;;;;0.40;0.40;;;5.10;99.90;;;;;;5034538;28;20561;-93
2023/12/31 02:32:27;;;;;;;0.50;0.50;;;5.10;99.90;;;;;;5035485;28;20271;-93
2023/12/31 02:34:53;;;;;;;0.60;0.60;;;5.10;99.90;;;;;;5034821;28;20861;-93
2023/12/31 02:37:18;;;;;;;0.40;0.40;;;5.10;99.90;;;;;;5034382;28;20217;-93
2023/12/31 02:39:44;;;;;;;0.50;0.50;;;5.10;99.90;;;;;;5034343;28;20226;-93
2023/12/31 02:42:09;;;;;;;0.70;0.70;;;5.10;99.90;;;;;;5033842;28;20230;-92
2023/12/31 02:44:35;;;;;;;0.40;0.40;;;5.20;99.90;;;;;;5026879;28;20214;-93
2023/12/31 02:47:00;;;;;;;0.83;0.83;;;5.10;99.90;;;;;;5035088;28;20226;-93
2023/12/31 02:49:26;;;;;;;0.60;0.60;;;5.10;99.90;;;;;;5035125;28;20192;-93
2023/12/31 02:51:52;;;;;;;0.30;0.30;;;5.10;99.90;;;;;;5033500;28;20215;-93
2023/12/31 02:54:17;;;;;;;0.40;0.40;;;5.10;99.90;;;;;;5032751;28;20195;-93
2023/12/31 02:56:43;;;;;;;0.63;0.60;;;5.10;99.90;;;;;;5035738;28;20199;-93
2023/12/31 02:59:08;;;;;;;0.33;0.33;;;5.10;99.90;;;;;;5035891;28;20187;-93
2023/12/31 03:01:34;;;;;;;0.40;0.40;;;5.10;99.90;;;;;;5035937;28;20287;-94
2023/12/31 03:03:59;;;;;;;0.40;0.40;;;5.10;99.90;;;;;;5035335;28;20191;-93
2023/12/31 03:06:29;;;;;;;0.40;0.40;;;5.20;99.90;;;;;;5034502;28;20187;-93
2023/12/31 03:08:58;;;;;;;0.40;0.40;;;5.20;99.90;;;;;;5033477;28;20179;-93
2023/12/31 03:11:24;;;;;;;0.60;0.50;;;5.20;99.90;;;;;;5032730;28;21002;-93
2023/12/31 03:13:50;;;;;;;0.37;0.37;;;5.20;99.90;;;;;;5021695;28;20808;-93
2023/12/31 03:16:15;;;;;;;0.53;0.53;;;5.20;99.90;;;;;;5032354;28;21000;-93
2023/12/31 03:18:41;;;;;;;0.40;0.40;;;5.30;99.90;;;;;;5026178;28;20239;-93
2023/12/31 03:21:16;;;;;;;0.50;0.50;;;5.30;99.90;;;;;;5021385;28;20233;-93
2023/12/31 03:23:42;;;;;;;0.40;0.40;;;5.30;99.90;;;;;;5033794;28;20194;-93
2023/12/31 03:26:07;;;;;;;0.40;0.40;;;5.30;99.90;;;;;;5034413;28;20438;-93
2023/12/31 03:28:33;;;;;;;0.40;0.40;;;5.20;99.90;;;;;;5034773;28;20410;-93
2023/12/31 03:30:58;;;;;;;0.30;0.30;;;5.30;99.90;;;;;;5032786;28;20238;-93
2023/12/31 03:33:24;;;;;;;0.40;0.40;;;5.20;99.90;;;;;;5034126;28;20180;-93
2023/12/31 03:35:50;;;;;;;0.43;0.43;;;5.30;99.90;;;;;;5032689;28;20221;-93
2023/12/31 03:38:15;;;;;;;0.40;0.40;;;5.30;99.90;;;;;;5034511;28;20501;-94
2023/12/31 03:40:41;;;;;;;0.30;0.30;;;5.20;99.90;;;;;;5021758;28;20184;-93
2023/12/31 03:43:06;;;;;;;0.40;0.40;;;5.30;99.90;;;;;;5022685;28;20192;-93
2023/12/31 03:45:32;;;;;;;0.50;0.50;;;5.30;99.90;;;;;;5021119;28;20172;-93
2023/12/31 03:47:58;;;;;;;0.50;0.50;;;5.30;99.90;;;;;;5032676;28;20740;-93
2023/12/31 03:50:23;;;;;;;1.07;1.07;;;5.30;99.90;;;;;;5034331;28;20212;-93
2023/12/31 03:52:49;;;;;;;0.40;0.40;;;5.40;99.90;;;;;;5034355;28;20219;-93
2023/12/31 03:55:14;;;;;;;0.40;0.40;;;5.40;99.90;;;;;;5034435;28;20183;-93
2023/12/31 03:57:40;;;;;;;0.50;0.50;;;5.40;99.90;;;;;;5033223;28;20184;-93
2023/12/31 04:00:07;;;;;;;0.47;0.47;;;5.40;99.90;;;;;;5032858;28;20220;-93
2023/12/31 04:02:33;;;;;;;0.40;0.40;;;5.40;99.90;;;;;;5034230;28;20644;-93
2023/12/31 04:04:59;;;;;;;0.40;0.40;;;5.40;99.90;;;;;;5030924;28;20492;-93
2023/12/31 04:07:25;;;;;;;0.40;0.40;;;5.50;99.90;;;;;;5033772;28;20434;-93
2023/12/31 04:09:50;;;;;;;0.40;0.40;;;5.50;99.90;;;;;;5033800;28;20188;-93
2023/12/31 04:12:16;;;;;;;0.30;0.30;;;5.50;99.90;;;;;;5033855;28;20194;-93
2023/12/31 04:14:41;;;;;;;0.40;0.40;;;5.50;99.90;;;;;;5033329;28;20203;-93
2023/12/31 04:17:07;;;;;;;0.40;0.40;;;5.50;99.90;;;;;;5033912;28;20194;-92
2023/12/31 04:19:32;;;;;;;0.40;0.40;;;5.50;99.90;;;;;;5023367;28;20195;-92
2023/12/31 04:21:58;;;;;;;0.40;0.40;;;5.50;99.90;;;;;;5031585;28;20596;-93
2023/12/31 04:24:23;;;;;;;0.40;0.40;;;5.50;99.90;;;;;;5032352;28;20176;-93
2023/12/31 04:26:49;;;;;;;0.43;0.43;;;5.50;99.90;;;;;;5033054;28;20278;-93
2023/12/31 04:29:14;;;;;;;0.40;0.40;;;5.50;99.90;;;;;;5029730;28;20180;-92
2023/12/31 04:31:41;;;;;;;0.40;0.40;;;5.50;99.90;;;;;;5010128;28;20279;-92
2023/12/31 04:34:07;;;;;;;0.40;0.40;;;5.50;99.90;;;;;;5010403;28;20234;-93
2023/12/31 04:36:33;;;;;;;0.40;0.40;;;5.50;99.90;;;;;;5012499;28;20939;-93
2023/12/31 04:38:58;;;;;;;0.40;0.40;;;5.40;99.90;;;;;;5012555;28;20227;-95
2023/12/31 04:41:24;;;;;;;0.40;0.40;;;5.40;99.90;;;;;;4996811;28;20275;-95
2023/12/31 04:43:50;;;;;;;0.40;0.40;;;5.40;99.90;;;;;;5012982;28;20191;-93
2023/12/31 04:46:19;;;;;;;0.50;0.50;;;5.40;99.90;;;;;;5011643;28;20211;-93
2023/12/31 04:48:44;;;;;;;0.80;0.80;;;5.40;99.90;;;;;;5014393;28;20188;-93
2023/12/31 04:51:10;;;;;;;0.40;0.40;;;5.40;99.90;;;;;;5012382;28;20477;-93
2023/12/31 04:53:36;;;;;;;0.40;0.40;;;5.40;99.90;;;;;;5011291;28;20188;-94
2023/12/31 04:56:02;;;;;;;0.40;0.40;;;5.40;99.90;;;;;;5014422;28;20260;-95
2023/12/31 04:58:27;;;;;;;0.40;0.40;;;5.40;99.90;;;;;;5014009;28;20432;-95
2023/12/31 05:00:53;;;;;;;0.40;0.40;;;5.40;99.90;;;;;;5011129;28;20192;-95
2023/12/31 05:03:18;;;;;;;0.30;0.30;;;5.30;99.90;;;;;;5012096;28;20217;-93
2023/12/31 05:05:44;;;;;;;0.30;0.30;;;5.40;99.90;;;;;;5002770;28;20330;-92
2023/12/31 05:08:09;;;;;;;0.30;0.30;;;5.30;99.90;;;;;;4995718;28;20543;-94
2023/12/31 05:10:37;;;;;;;0.30;0.30;;;5.30;99.90;;;;;;4995405;28;20220;-94
2023/12/31 05:13:04;;;;;;;0.30;0.30;;;5.30;99.90;;;;;;5013433;28;20214;-94
2023/12/31 05:15:30;;;;;;;0.30;0.30;;;5.30;99.90;;;;;;5013177;28;20446;-92
2023/12/31 05:17:56;;;;;;;0.30;0.30;;;5.20;99.90;;;;;;5013382;28;20390;-94
2023/12/31 05:20:21;;;;;;;0.30;0.30;;;5.20;99.90;;;;;;5013687;28;20431;-94
2023/12/31 05:22:47;;;;;;;0.80;0.80;;;5.20;99.90;;;;;;5007641;28;20177;-94
2023/12/31 05:25:13;;;;;;;0.30;0.30;;;5.20;99.90;;;;;;5007663;28;20825;-94
2023/12/31 05:27:38;;;;;;;0.40;0.40;;;5.20;99.90;;;;;;5010940;28;20180;-94
2023/12/31 05:30:05;;;;;;;0.40;0.40;;;5.20;99.90;;;;;;5017112;28;20235;-92
2023/12/31 05:32:30;;;;;;;0.30;0.30;;;5.20;99.90;;;;;;5035488;28;20234;-94
2023/12/31 05:34:56;;;;;;;0.30;0.30;;;5.20;99.90;;;;;;5036515;28;20474;-94
2023/12/31 05:37:22;;;;;;;0.30;0.30;;;5.20;99.90;;;;;;5036387;28;20184;-94
2023/12/31 05:39:47;;;;;;;0.30;0.30;;;5.20;99.90;;;;;;5036960;28;20245;-94
2023/12/31 05:42:14;;;;;;;0.60;0.60;;;5.10;99.90;;;;;;5036591;28;20191;-94
2023/12/31 05:44:39;;;;;;;0.47;0.47;;;5.20;99.90;;;;;;5036995;28;20184;-92
2023/12/31 05:47:05;;;;;;;0.40;0.40;;;5.20;99.90;;;;;;5035953;28;20438;-91
2023/12/31 05:49:35;;;;;;;0.40;0.40;;;5.20;99.90;;;;;;5026703;28;20207;-92
2023/12/31 05:52:03;;;;;;;0.40;0.40;;;5.20;99.90;;;;;;5033777;28;20294;-92
2023/12/31 05:54:28;;;;;;;0.40;0.40;;;5.20;99.90;;;;;;5036899;28;20413;-91
2023/12/31 05:56:54;;;;;;;0.40;0.40;;;5.20;99.90;;;;;;5035339;28;20444;-91
2023/12/31 05:59:19;;;;;;;0.40;0.40;;;5.20;99.90;;;;;;5036470;28;20218;-92
2023/12/31 06:01:45;;;;;;;0.30;0.30;;;5.20;99.90;;;;;;5035645;28;20180;-92
2023/12/31 06:04:11;;;;;;;0.30;0.30;;;5.20;99.90;;;;;;5029525;28;20222;-92
2023/12/31 06:06:36;;;;;;;0.30;0.30;;;5.20;99.90;;;;;;5034612;28;20434;-92
2023/12/31 06:09:02;;;;;;;0.20;0.20;;;5.20;99.90;;;;;;5026626;28;20535;-92
2023/12/31 06:11:28;;;;;;;0.30;0.30;;;5.20;99.90;;;;;;5032819;28;20667;-92
2023/12/31 06:13:53;;;;;;;0.40;0.40;;;5.20;99.90;;;;;;5034098;28;20279;-92
2023/12/31 06:16:19;;;;;;;0.40;0.40;;;5.30;99.90;;;;;;5035981;28;20195;-92
2023/12/31 06:18:44;;;;;;;1.47;1.47;;;5.30;99.90;;;;;;5035872;28;20214;-91
2023/12/31 06:21:10;;;;;;;0.40;0.40;;;5.30;99.90;;;;;;5036180;28;20192;-91
2023/12/31 06:23:35;;;;;;;0.30;0.30;;;5.30;99.90;;;;;;5031463;28;20203;-91
2023/12/31 06:26:01;;;;;;;0.40;0.40;;;5.30;99.90;;;;;;5036240;28;20191;-91
2023/12/31 06:28:26;;;;;;;0.90;0.90;;;5.30;99.90;;;;;;5035142;28;20645;-92
2023/12/31 06:30:52;;;;;;;0.40;0.40;;;5.30;99.90;;;;;;5046040;28;20234;-90
2023/12/31 06:33:17;;;;;;;0.50;0.50;;;5.30;99.90;;;;;;5031059;28;20278;-89
2023/12/31 06:35:43;;;;;;;0.40;0.40;;;5.20;99.90;;;;;;5051835;28;20193;-90
2023/12/31 06:38:08;;;;;;;0.67;0.67;;;5.20;99.90;;;;;;5054664;28;20193;-90
2023/12/31 06:40:34;;;;;;;0.30;0.30;;;5.20;99.90;;;;;;5055867;28;20201;-91
2023/12/31 06:42:59;;;;;;;0.20;0.20;;;5.20;99.90;;;;;;5055660;28;20594;-91
2023/12/31 06:45:25;;;;;;;0.40;0.40;;;5.20;99.90;;;;;;5054251;28;20180;-93
2023/12/31 06:47:51;;;;;;;0.40;0.40;;;5.20;99.90;;;;;;5055714;28;20187;-94
2023/12/31 06:50:16;;;;;;;1.50;0.50;;;5.20;99.90;;;;;;5055212;28;20464;-93
2023/12/31 06:52:42;;;;;;;1.60;1.60;;;5.20;99.90;;;;;;5055243;28;20205;-90
2023/12/31 06:55:10;;;;;;;0.40;0.40;;;5.20;99.90;;;;;;5055071;28;20217;-93
2023/12/31 06:57:36;;;;;;;0.40;0.40;;;5.20;99.90;;;;;;5054403;28;20182;-94
2023/12/31 07:00:02;;;;;;;0.37;0.37;;;5.20;99.90;;;;;;5055135;28;20428;-91
2023/12/31 07:02:27;;;;;;;0.30;0.30;;;5.10;99.90;;;;;;5054570;28;20185;-91
2023/12/31 07:04:53;;;;;;;0.87;0.87;;;5.20;99.90;;;;;;5043816;28;20273;-93
2023/12/31 07:07:19;;;;;;;0.50;0.50;;;5.20;99.90;;;;;;5054961;28;20296;-94
2023/12/31 07:09:45;;;;;;;0.40;0.40;;;5.20;99.90;;;;;;5053536;28;20182;-94
2023/12/31 07:12:10;;;;;;;0.37;0.37;;;5.20;99.90;;;;;;5055291;28;20487;-94
2023/12/31 07:14:36;;;;;;;0.40;0.40;;;5.20;99.90;;;;;;5033639;28;20960;-94
2023/12/31 07:17:02;;;;;;;0.40;0.40;;;5.20;99.90;;;;;;5054565;28;20190;-94
2023/12/31 07:19:27;;;;;;;0.40;0.40;;;5.20;99.90;;;;;;5054928;28;20171;-94
2023/12/31 07:21:53;;;;;;;0.50;0.50;;;5.20;99.90;;;;;;5047302;28;20639;-91
2023/12/31 07:24:18;;;;;;;0.40;0.40;;;5.20;99.90;;;;;;5051857;28;20245;-89
2023/12/31 07:26:44;;;;;;;0.30;0.30;;;5.20;99.90;;;;;;5049333;28;20563;-86
2023/12/31 07:29:09;;;;;;;0.40;0.40;;;5.20;99.90;;;;;;5034848;28;20211;-91
2023/12/31 07:31:36;;;;;;;0.40;0.40;;;5.40;99.90;;;;;;5035553;28;20266;-89
2023/12/31 07:34:02;;;;;;;0.50;0.50;;;5.40;99.90;;;;;;5061311;28;20182;-93
2023/12/31 07:36:28;;;;;;;0.40;0.40;;;5.40;99.90;;;;;;5060567;28;20488;-92
2023/12/31 07:38:53;;;;;;;0.30;0.30;;;5.40;99.90;;;;;;5051366;28;20512;-91
2023/12/31 07:41:19;;;;;;;0.40;0.40;;;5.30;99.90;;;;;;5053876;28;20194;-93
2023/12/31 07:43:54;;;;;;;0.63;0.63;;;5.20;99.90;;;;;;5054544;28;20252;-94
2023/12/31 07:46:20;;;;;;;0.40;0.40;;;5.20;99.90;;;;;;5048097;28;20202;-95
2023/12/31 07:48:45;;;;;;;0.40;0.40;;;5.20;99.90;;;;;;5052483;28;20422;-93
2023/12/31 07:51:11;;;;;;;0.40;0.40;;;5.20;99.90;;;;;;5030205;28;20686;-93
2023/12/31 07:53:36;;;;;;;0.40;0.40;;;5.20;99.90;;;;;;5035182;28;20685;-94
2023/12/31 07:56:02;;;;;;;0.50;0.50;;;5.20;99.90;;;;;;5053798;28;20182;-94
2023/12/31 07:58:28;;;;;;;0.40;0.40;;;5.20;99.90;;;;;;5042936;28;20214;-92
2023/12/31 08:00:55;;;;;;;0.50;0.50;;;5.20;99.90;;;;;;5046774;28;20245;-92
2023/12/31 08:03:21;;;;;;;0.50;0.50;;;5.20;99.90;;;;;;5051117;28;20174;-92
2023/12/31 08:05:46;;;;;;;0.40;0.40;;;5.20;99.90;;;;;;5032246;28;20435;-90
2023/12/31 08:08:12;;;;;;;0.50;0.50;;;5.10;99.90;;;;;;5043146;28;20456;-92
2023/12/31 08:10:40;;;;;;;0.50;0.50;;;5.20;99.90;;;;;;5027587;28;20260;-88
2023/12/31 08:13:07;;;;;;;0.40;0.40;;;5.20;99.90;;;;;;5044743;28;20473;-87
2023/12/31 08:15:32;;;;;;;0.40;0.40;;;5.20;99.90;;;;;;5050242;28;20414;-87
2023/12/31 08:17:58;;;;;;;0.40;0.40;;;5.20;99.90;;;;;;5047979;28;20453;-90
2023/12/31 08:20:24;;;;;;;0.50;0.50;;;5.10;99.90;;;;;;5042740;28;20234;-90
2023/12/31 08:22:52;;;;;;;0.40;0.40;;;5.20;99.90;;;;;;5047729;28;20273;-91
2023/12/31 08:25:19;;;;;;;0.50;0.50;;;5.20;99.90;;;;;;5031580;28;20293;-91
2023/12/31 08:27:44;;;;;;;0.40;0.40;;;5.20;99.90;;;;;;5044728;28;20835;-90
2023/12/31 08:30:11;;;;;;;0.40;0.40;;;5.20;99.90;;;;;;5035240;28;20551;-89
2023/12/31 08:32:37;;;;;;;0.73;0.73;;;5.20;99.90;;;;;;5049760;28;20282;-90
2023/12/31 08:35:03;;;;;;;0.50;0.50;;;5.20;99.90;;;;;;5030716;28;20525;-90
2023/12/31 08:37:29;;;;;;;0.60;0.60;;;5.20;99.90;;;;;;5047731;28;20266;-90
2023/12/31 08:39:54;;;;;;;0.77;0.77;;;5.20;99.90;;;;;;5029856;28;21009;-90
2023/12/31 08:42:20;;;;;;;0.40;0.40;;;5.30;99.90;;;;;;5026245;28;20194;-90
2023/12/31 08:44:46;;;;;;;0.40;0.40;;;5.20;99.90;;;;;;5040452;28;20838;-89
2023/12/31 08:47:11;;;;;;;0.60;0.60;;;5.30;99.90;;;;;;5031267;28;20807;-90
2023/12/31 08:49:38;;;;;;;1.30;0.97;;;5.30;99.90;;;;;;5045916;28;20160;-89
2023/12/31 08:52:04;;;;;;;0.50;0.50;;;5.30;99.90;;;;;;5043750;28;20218;-89
2023/12/31 08:54:29;;;;;;;0.50;0.50;;;5.30;99.90;;;;;;5032250;28;20429;-89
2023/12/31 08:56:55;;;;;;;0.50;0.50;;;5.30;99.90;;;;;;5045082;28;20400;-90
2023/12/31 08:59:20;;;;;;;0.50;0.50;;;5.30;99.90;;;;;;5048773;28;20519;-87
2023/12/31 09:01:46;;;;;;;0.50;0.50;;;5.30;99.90;;;;;;5047926;28;20150;-88
2023/12/31 09:04:11;;;;;;;0.50;0.50;;;5.30;99.90;;;;;;5047502;28;20154;-86
2023/12/31 09:06:38;;;;;;;0.50;0.50;;;5.30;99.90;;;;;;5044929;28;20595;-85
2023/12/31 09:09:04;;;;;;;0.50;0.50;;;5.40;99.90;;;;;;5044645;28;20720;-85
2023/12/31 09:11:30;;;;;;;0.50;0.50;;;5.40;99.90;;;;;;5029646;28;20869;-85
2023/12/31 09:13:56;;;;;;;0.60;0.60;;;5.50;99.90;;;;;;5046628;28;20449;-85
2023/12/31 09:16:21;;;;;;;0.50;0.50;;;5.50;99.90;;;;;;5031815;28;20189;-85
2023/12/31 09:18:47;;;;;;;0.60;0.60;;;5.50;99.90;;;;;;5052892;28;20197;-85
2023/12/31 09:21:12;;;;;;;0.60;0.60;;;5.50;99.90;;;;;;5047727;28;20175;-85
2023/12/31 09:23:38;;;;;;;0.70;0.70;;;5.60;99.90;;;;;;5052198;28;20182;-84
2023/12/31 09:26:04;;;;;;;0.60;0.60;;;5.60;99.90;;;;;;5050038;28;20267;-85
2023/12/31 09:28:29;;;;;;;0.70;0.70;;;5.60;99.90;;;;;;5033106;28;20198;-85
2023/12/31 09:30:55;;;;;;;0.50;0.50;;;5.60;99.90;;;;;;5047894;28;20713;-84
2023/12/31 09:33:20;;;;;;;0.50;0.50;;;5.60;99.90;;;;;;5052924;28;20219;-85
2023/12/31 09:35:46;;;;;;;0.70;0.70;;;5.70;99.90;;;;;;5030079;28;20183;-85
2023/12/31 09:38:11;;;;;;;0.70;0.70;;;5.70;99.90;;;;;;5047229;28;20192;-85
2023/12/31 09:40:37;;;;;;;0.50;0.50;;;5.70;99.90;;;;;;5049831;28;20229;-86
2023/12/31 09:43:03;;;;;;;0.50;0.50;;;5.80;99.90;;;;;;5046363;28;20195;-86
2023/12/31 09:45:30;;;;;;;0.60;0.60;;;5.90;99.90;;;;;;5046496;28;20712;-85
2023/12/31 09:47:59;;;;;;;0.50;0.50;;;5.90;99.90;;;;;;5032607;28;20935;-86
2023/12/31 09:50:25;;;;;;;0.40;0.40;;;5.90;99.90;;;;;;5047442;28;20480;-85
2023/12/31 09:52:55;;;;;;;0.50;0.50;;;6.00;99.90;;;;;;5046839;28;20518;-85
2023/12/31 09:55:23;;;;;;;0.60;0.60;;;6.00;99.90;;;;;;5049119;28;20752;-85
2023/12/31 09:57:52;;;;;;;0.43;0.43;;;6.10;99.90;;;;;;5049015;28;20444;-85
2023/12/31 10:00:20;;;;;;;0.50;0.50;;;6.10;99.90;;;;;;5041579;28;21305;-85
2023/12/31 10:02:46;;;;;;;0.70;0.70;;;6.10;99.90;;;;;;5031651;28;20818;-85
2023/12/31 10:05:12;;;;;;;0.40;0.40;;;6.20;99.90;;;;;;5027440;28;20445;-86
2023/12/31 10:07:39;;;;;;;0.80;0.80;;;6.30;99.90;;;;;;5049076;28;20441;-85
2023/12/31 10:10:07;;;;;;;0.50;0.50;;;6.30;99.90;;;;;;5044545;28;21028;-84
2023/12/31 10:12:32;;;;;;;0.50;0.50;;;6.40;99.90;;;;;;5025271;28;20440;-86
2023/12/31 10:14:58;;;;;;;0.50;0.50;;;6.40;99.90;;;;;;5046034;28;20460;-85
2023/12/31 10:17:26;;;;;;;0.50;0.50;;;6.40;99.90;;;;;;5032100;28;20674;-87
2023/12/31 10:19:52;;;;;;;0.50;0.50;;;6.50;99.90;;;;;;5051311;28;20344;-84
2023/12/31 10:22:17;;;;;;;0.40;0.40;;;6.50;99.90;;;;;;5049573;28;21027;-85
2023/12/31 10:24:43;;;;;;;0.40;0.40;;;6.60;99.90;;;;;;5034136;28;20595;-87
2023/12/31 10:27:11;;;;;;;0.70;0.70;;;6.60;99.90;;;;;;5048563;28;20553;-86
2023/12/31 10:29:37;;;;;;;0.40;0.40;;;6.70;99.90;;;;;;5046530;28;20190;-86
2023/12/31 10:32:06;;;;;;;0.40;0.40;;;6.70;99.90;;;;;;5051298;28;20480;-86
2023/12/31 10:34:32;;;;;;;0.40;0.40;;;6.70;99.90;;;;;;5051779;28;20921;-86
2023/12/31 10:37:06;;;;;;;0.50;0.50;;;6.80;99.90;;;;;;5050928;28;21035;-84
2023/12/31 10:39:36;;;;;;;0.40;0.40;;;6.90;99.90;;;;;;5048960;28;20433;-86
2023/12/31 10:42:04;;;;;;;0.43;0.43;;;6.90;99.90;;;;;;5051667;28;20433;-86
2023/12/31 10:44:33;;;;;;;0.50;0.50;;;6.90;99.90;;;;;;5050015;28;20505;-84
2023/12/31 10:47:05;;;;;;;0.40;0.40;;;6.90;99.90;;;;;;5050855;28;20452;-84
2023/12/31 10:49:33;;;;;;;0.40;0.40;;;7.00;99.90;;;;;;5048575;28;20423;-83
2023/12/31 10:52:03;;;;;;;0.40;0.40;;;7.00;99.90;;;;;;5030445;28;20520;-84
2023/12/31 10:54:51;;;;;;;0.30;0.30;;;7.00;99.90;;;;;;5034296;28;20455;-83
2023/12/31 10:57:17;;;;;;;0.47;0.47;;;7.00;99.90;;;;;;5051342;28;20520;-81
2023/12/31 10:59:43;;;;;;;0.30;0.30;;;7.00;99.90;;;;;;5050913;28;20444;-85
2023/12/31 11:02:20;;;;;;;0.40;0.40;;;7.10;99.90;;;;;;5032484;28;20483;-84
2023/12/31 11:04:47;;;;;;;0.30;0.30;;;7.00;99.90;;;;;;5050808;28;20543;-86
2023/12/31 11:07:18;;;;;;;0.30;0.30;;;7.00;99.90;;;;;;5050508;28;20429;-82
2023/12/31 11:09:46;;;;;;;0.40;0.40;;;7.00;99.90;;;;;;5051070;28;20559;-83
2023/12/31 11:12:12;;;;;;;0.30;0.30;;;7.10;99.90;;;;;;5030658;28;20475;-84
2023/12/31 11:14:42;;;;;;;0.40;0.40;;;7.00;99.90;;;;;;5043082;28;20770;-85
2023/12/31 11:17:49;;;;;;;0.30;0.30;;;7.00;99.90;;;;;;5050298;28;20933;-87
2023/12/31 11:20:21;;;;;;;0.30;0.30;;;7.10;99.90;;;;;;4950060;29;20465;-86
2023/12/31 11:23:11;;;;;;;0.30;0.30;;;7.10;99.90;;;;;;5015578;28;20460;-86
2023/12/31 11:25:38;;;;;;;0.40;0.40;;;7.10;99.90;;;;;;5025661;28;20434;-86
2023/12/31 11:28:06;;;;;;;0.30;0.30;;;7.10;99.90;;;;;;5023760;28;20813;-86
2023/12/31 11:30:51;;;;;;;0.30;0.30;;;7.00;99.90;;;;;;5028313;28;20481;-85
2023/12/31 11:33:19;;;;;;;;;;;7.10;99.90;;;;;;5050369;28;20316;-86
2023/12/31 11:35:44;;;;;;;;;;;7.00;99.90;;;;;;5049060;28;19912;-87
2023/12/31 11:38:10;;;;;;;;;;;7.00;99.90;;;;;;5050451;28;19973;-86
2023/12/31 11:40:36;;;;;;;;;;;7.00;99.90;;;;;;5043149;28;19947;-86
2023/12/31 11:43:23;;;;;;;0.30;0.30;;;7.00;99.90;;;;;;5049617;28;19912;-87
2023/12/31 11:45:50;;;;;;;0.37;0.37;;;6.90;99.90;;;;;;5020705;28;20430;-87
2023/12/31 11:48:26;;;;;;;0.30;0.30;;;7.00;99.90;;;;;;5037641;28;20421;-86
2023/12/31 11:51:00;;;;;;;0.30;0.30;;;6.90;99.90;;;;;;5048729;28;20481;-87
2023/12/31 11:53:27;;;;;;;0.30;0.30;;;6.90;99.90;;;;;;5049705;28;20419;-86
2023/12/31 11:55:54;;;;;;;0.30;0.30;;;7.00;99.90;;;;;;5049430;28;20480;-86
2023/12/31 11:58:21;;;;;;;0.30;0.30;;;7.00;99.90;;;;;;5025896;28;20430;-86
2023/12/31 12:00:47;;;;;;;0.40;0.40;;;7.10;99.90;;;;;;5022459;28;20973;-86
2023/12/31 12:03:14;;;;;;;0.30;0.30;;;7.10;99.90;;;;;;5031061;28;20414;-85
2023/12/31 12:05:39;;;;;;;0.30;0.30;;;7.10;99.90;;;;;;5049120;28;20465;-87
2023/12/31 12:08:08;;;;;;;0.30;0.30;;;7.10;99.90;;;;;;5049467;28;21002;-86
2023/12/31 12:10:35;;;;;;;0.30;0.30;;;7.10;99.90;;;;;;5049161;28;20234;-86
2023/12/31 12:13:01;;;;;;;0.30;0.30;;;7.10;99.90;;;;;;5044713;28;20437;-86
2023/12/31 12:15:33;;;;;;;0.30;0.30;;;7.10;99.90;;;;;;5048970;28;20425;-85
2023/12/31 12:17:58;;;;;;;0.30;0.30;;;7.10;99.90;;;;;;5047488;28;20279;-86
2023/12/31 12:20:25;;;;;;;0.30;0.30;;;7.10;99.90;;;;;;5048757;28;20506;-85
2023/12/31 12:22:50;;;;;;;0.30;0.30;;;7.10;99.90;;;;;;5028248;28;20609;-86
2023/12/31 12:25:16;;;;;;;0.30;0.30;;;7.10;99.90;;;;;;5049509;28;20425;-86
2023/12/31 12:27:41;;;;;;;0.30;0.30;;;7.10;99.90;;;;;;5031885;28;20194;-86
2023/12/31 12:30:07;;;;;;;0.30;0.30;;;7.10;99.90;;;;;;5028778;28;20706;-85
2023/12/31 12:32:34;;;;;;;0.30;0.30;;;7.10;99.90;;;;;;5028480;28;20245;-85
2023/12/31 12:35:01;;;;;;;0.30;0.30;;;7.00;99.90;;;;;;5028703;28;20433;-87
2023/12/31 12:37:26;;;;;;;0.30;0.30;;;7.10;99.90;;;;;;5029854;28;20433;-85
2023/12/31 12:39:58;;;;;;;0.30;0.30;;;7.10;99.90;;;;;;5029612;28;20497;-86
2023/12/31 12:42:26;;;;;;;0.30;0.30;;;7.10;99.90;;;;;;5026731;28;20189;-86
2023/12/31 12:44:54;;;;;;;0.30;0.30;;;7.20;99.90;;;;;;5013240;28;20499;-85
2023/12/31 12:47:21;;;;;;;0.30;0.30;;;7.40;99.90;;;;;;5027090;28;20985;-88
2023/12/31 12:49:46;;;;;;;0.30;0.30;;;7.60;99.90;;;;;;5031019;28;20937;-85
2023/12/31 12:52:12;;;;;;;0.27;0.27;;;7.60;99.90;;;;;;5029619;28;20477;-87
2023/12/31 12:54:38;;;;;;;0.30;0.30;;;7.60;99.90;;;;;;5027623;28;20191;-88